sensor_id;sensor_type;location;lat;lon;timestamp;pressure;altitude;pressure_sealevel;temperature;humidity
84136;BME280;74238;50.566;7.262;2024-01-30T00:01:09;102217.41;;;5.98;81.81
84136;BME280;74238;50.566;7.262;2024-01-30T00:03:34;102240.28;;;6.04;81.49
84136;BME280;74238;50.566;7.262;2024-01-30T00:05:59;102240.25;;;6.03;81.26
84136;BME280;74238;50.566;7.262;2024-01-30T00:08:25;102243.69;;;6.02;81.26
84136;BME280;74238;50.566;7.262;2024-01-30T00:10:50;102232.25;;;5.98;81.61
84136;BME280;74238;50.566;7.262;2024-01-30T00:13:15;102243.69;;;6.00;81.57
84136;BME280;74238;50.566;7.262;2024-01-30T00:15:42;102240.13;;;5.99;81.25
84136;BME280;74238;50.566;7.262;2024-01-30T00:18:08;102235.66;;;5.95;81.18
84136;BME280;74238;50.566;7.262;2024-01-30T00:20:33;102239.13;;;5.94;81.71
84136;BME280;74238;50.566;7.262;2024-01-30T00:22:58;102242.56;;;5.93;82.34
84136;BME280;74238;50.566;7.262;2024-01-30T00:25:24;102244.22;;;5.91;81.23
84136;BME280;74238;50.566;7.262;2024-01-30T00:27:49;102239.78;;;5.89;81.77
84136;BME280;74238;50.566;7.262;2024-01-30T00:30:14;102241.50;;;5.88;82.68
84136;BME280;74238;50.566;7.262;2024-01-30T00:32:40;102235.38;;;5.88;81.69
84136;BME280;74238;50.566;7.262;2024-01-30T00:35:05;102230.94;;;5.85;82.14
84136;BME280;74238;50.566;7.262;2024-01-30T00:37:31;102232.69;;;5.86;81.56
84136;BME280;74238;50.566;7.262;2024-01-30T00:39:56;102237.94;;;5.86;82.62
84136;BME280;74238;50.566;7.262;2024-01-30T00:42:22;102230.84;;;5.82;81.49
84136;BME280;74238;50.566;7.262;2024-01-30T00:44:49;102229.06;;;5.81;82.30
84136;BME280;74238;50.566;7.262;2024-01-30T00:47:14;102240.34;;;5.78;81.44
84136;BME280;74238;50.566;7.262;2024-01-30T00:49:39;102231.47;;;5.75;82.43
84136;BME280;74238;50.566;7.262;2024-01-30T00:52:05;102234.97;;;5.74;82.08
84136;BME280;74238;50.566;7.262;2024-01-30T00:54:30;102227.88;;;5.71;83.03
84136;BME280;74238;50.566;7.262;2024-01-30T00:56:56;102214.44;;;5.61;82.37
84136;BME280;74238;50.566;7.262;2024-01-30T00:59:22;102209.97;;;5.57;83.05
84136;BME280;74238;50.566;7.262;2024-01-30T01:01:47;102230.25;;;5.64;82.68
84136;BME280;74238;50.566;7.262;2024-01-30T01:04:12;102225.78;;;5.60;82.07
84136;BME280;74238;50.566;7.262;2024-01-30T01:06:38;102224.03;;;5.60;82.92
84136;BME280;74238;50.566;7.262;2024-01-30T01:09:03;102203.59;;;5.48;82.32
84136;BME280;74238;50.566;7.262;2024-01-30T01:11:29;102158.22;;;5.22;83.29
84136;BME280;74238;50.566;7.262;2024-01-30T01:13:54;102222.22;;;5.58;82.44
84136;BME280;74238;50.566;7.262;2024-01-30T01:16:19;102221.25;;;5.55;82.12
84136;BME280;74238;50.566;7.262;2024-01-30T01:18:45;102222.13;;;5.54;83.40
84136;BME280;74238;50.566;7.262;2024-01-30T01:21:10;102221.16;;;5.52;83.49
84136;BME280;74238;50.566;7.262;2024-01-30T01:23:36;102215.88;;;5.51;82.46
84136;BME280;74238;50.566;7.262;2024-01-30T01:26:01;102226.31;;;5.49;82.65
84136;BME280;74238;50.566;7.262;2024-01-30T01:28:26;102217.59;;;5.50;82.60
84136;BME280;74238;50.566;7.262;2024-01-30T01:30:52;102205.16;;;5.43;83.45
84136;BME280;74238;50.566;7.262;2024-01-30T01:33:17;102223.69;;;5.49;83.72
84136;BME280;74238;50.566;7.262;2024-01-30T01:35:42;102187.28;;;5.30;83.68
84136;BME280;74238;50.566;7.262;2024-01-30T01:38:08;102216.63;;;5.47;83.18
84136;BME280;74238;50.566;7.262;2024-01-30T01:40:33;102222.81;;;5.49;82.58
84136;BME280;74238;50.566;7.262;2024-01-30T01:42:59;102220.13;;;5.47;83.38
84136;BME280;74238;50.566;7.262;2024-01-30T01:45:27;102222.59;;;5.43;83.52
84136;BME280;74238;50.566;7.262;2024-01-30T01:47:53;102214.59;;;5.38;83.37
84136;BME280;74238;50.566;7.262;2024-01-30T01:50:20;102222.56;;;5.41;83.05
84136;BME280;74238;50.566;7.262;2024-01-30T01:52:50;102224.22;;;5.39;82.38
84136;BME280;74238;50.566;7.262;2024-01-30T01:55:16;102221.44;;;5.34;83.77
84136;BME280;74238;50.566;7.262;2024-01-30T01:57:47;102231.03;;;5.34;83.60
84136;BME280;74238;50.566;7.262;2024-01-30T02:00:13;102232.75;;;5.32;83.00
84136;BME280;74238;50.566;7.262;2024-01-30T02:02:39;102229.19;;;5.30;83.61
84136;BME280;74238;50.566;7.262;2024-01-30T02:05:04;102228.22;;;5.28;82.69
84136;BME280;74238;50.566;7.262;2024-01-30T02:07:30;102221.13;;;5.24;82.77
84136;BME280;74238;50.566;7.262;2024-01-30T02:09:56;102225.41;;;5.22;82.85
84136;BME280;74238;50.566;7.262;2024-01-30T02:12:21;102229.69;;;5.20;82.92
84136;BME280;74238;50.566;7.262;2024-01-30T02:14:47;102230.53;;;5.19;83.41
84136;BME280;74238;50.566;7.262;2024-01-30T02:17:16;102220.00;;;5.17;83.99
84136;BME280;74238;50.566;7.262;2024-01-30T02:19:41;102217.22;;;5.13;84.09
84136;BME280;74238;50.566;7.262;2024-01-30T02:22:07;102201.16;;;5.02;83.54
84136;BME280;74238;50.566;7.262;2024-01-30T02:24:33;102210.13;;;5.08;83.41
84136;BME280;74238;50.566;7.262;2024-01-30T02:26:59;102198.44;;;4.99;83.12
84136;BME280;74238;50.566;7.262;2024-01-30T02:29:24;102212.56;;;5.04;83.65
84136;BME280;74238;50.566;7.262;2024-01-30T02:31:49;102214.50;;;5.09;83.11
84136;BME280;74238;50.566;7.262;2024-01-30T02:34:15;102213.56;;;5.07;82.90
84136;BME280;74238;50.566;7.262;2024-01-30T02:36:43;102219.72;;;5.08;83.90
84136;BME280;74238;50.566;7.262;2024-01-30T02:39:09;102214.41;;;5.06;83.57
84136;BME280;74238;50.566;7.262;2024-01-30T02:41:34;102202.94;;;5.03;83.51
84136;BME280;74238;50.566;7.262;2024-01-30T02:44:00;102209.97;;;5.04;83.17
84136;BME280;74238;50.566;7.262;2024-01-30T02:46:25;102194.94;;;4.98;84.00
84136;BME280;74238;50.566;7.262;2024-01-30T02:48:51;102202.59;;;4.92;84.35
84136;BME280;74238;50.566;7.262;2024-01-30T02:51:16;102215.88;;;4.98;84.65
84136;BME280;74238;50.566;7.262;2024-01-30T02:53:41;102208.81;;;4.96;83.83
84136;BME280;74238;50.566;7.262;2024-01-30T02:56:07;102206.97;;;4.93;84.61
84136;BME280;74238;50.566;7.262;2024-01-30T02:58:35;102196.28;;;4.87;84.06
84136;BME280;74238;50.566;7.262;2024-01-30T03:01:00;102204.25;;;4.90;84.40
84136;BME280;74238;50.566;7.262;2024-01-30T03:03:25;102198.06;;;4.88;83.97
84136;BME280;74238;50.566;7.262;2024-01-30T03:05:51;102201.53;;;4.87;84.08
84136;BME280;74238;50.566;7.262;2024-01-30T03:08:16;102192.63;;;4.82;84.55
84136;BME280;74238;50.566;7.262;2024-01-30T03:10:41;102196.19;;;4.84;84.61
84136;BME280;74238;50.566;7.262;2024-01-30T03:13:07;102193.50;;;4.82;84.02
84136;BME280;74238;50.566;7.262;2024-01-30T03:15:32;102196.88;;;4.78;84.18
84136;BME280;74238;50.566;7.262;2024-01-30T03:17:57;102190.88;;;4.81;84.63
84136;BME280;74238;50.566;7.262;2024-01-30T03:20:23;102194.28;;;4.80;83.74
84136;BME280;74238;50.566;7.262;2024-01-30T03:22:48;102195.19;;;4.80;84.07
84136;BME280;74238;50.566;7.262;2024-01-30T03:25:13;102189.94;;;4.80;85.29
84136;BME280;74238;50.566;7.262;2024-01-30T03:27:39;102189.13;;;4.81;84.58
84136;BME280;74238;50.566;7.262;2024-01-30T03:30:04;102191.75;;;4.81;85.27
84136;BME280;74238;50.566;7.262;2024-01-30T03:32:30;102174.22;;;4.79;83.76
84136;BME280;74238;50.566;7.262;2024-01-30T03:34:55;102168.91;;;4.77;84.85
84136;BME280;74238;50.566;7.262;2024-01-30T03:37:21;102173.25;;;4.77;85.27
84136;BME280;74238;50.566;7.262;2024-01-30T03:39:46;102139.56;;;4.60;85.07
84136;BME280;74238;50.566;7.262;2024-01-30T03:42:11;102181.38;;;4.84;85.30
84136;BME280;74238;50.566;7.262;2024-01-30T03:44:36;102177.03;;;4.85;84.32
84136;BME280;74238;50.566;7.262;2024-01-30T03:47:02;102162.78;;;4.77;84.48
84136;BME280;74238;50.566;7.262;2024-01-30T03:49:27;102178.66;;;4.81;85.21
84136;BME280;74238;50.566;7.262;2024-01-30T03:51:53;102180.50;;;4.84;85.18
84136;BME280;74238;50.566;7.262;2024-01-30T03:54:18;102182.22;;;4.83;84.83
84136;BME280;74238;50.566;7.262;2024-01-30T03:56:43;102159.88;;;4.68;84.16
84136;BME280;74238;50.566;7.262;2024-01-30T03:59:08;102177.81;;;4.82;84.14
84136;BME280;74238;50.566;7.262;2024-01-30T04:01:34;102183.13;;;4.84;84.29
84136;BME280;74238;50.566;7.262;2024-01-30T04:03:59;102177.81;;;4.82;84.73
84136;BME280;74238;50.566;7.262;2024-01-30T04:06:24;102174.38;;;4.83;84.68
84136;BME280;74238;50.566;7.262;2024-01-30T04:08:50;102177.81;;;4.82;83.88
84136;BME280;74238;50.566;7.262;2024-01-30T04:11:18;102172.38;;;4.76;84.39
84136;BME280;74238;50.566;7.262;2024-01-30T04:13:44;102175.84;;;4.75;84.20
84136;BME280;74238;50.566;7.262;2024-01-30T04:16:21;102178.50;;;4.77;84.16
84136;BME280;74238;50.566;7.262;2024-01-30T04:18:47;102178.41;;;4.74;84.58
84136;BME280;74238;50.566;7.262;2024-01-30T04:21:13;102178.28;;;4.71;84.52
84136;BME280;74238;50.566;7.262;2024-01-30T04:23:42;102146.03;;;4.46;84.55
84136;BME280;74238;50.566;7.262;2024-01-30T04:26:07;102179.84;;;4.65;84.52
84136;BME280;74238;50.566;7.262;2024-01-30T04:28:32;102179.84;;;4.65;84.74
84136;BME280;74238;50.566;7.262;2024-01-30T04:30:58;102171.78;;;4.59;84.86
84136;BME280;74238;50.566;7.262;2024-01-30T04:33:23;102175.28;;;4.60;84.58
84136;BME280;74238;50.566;7.262;2024-01-30T04:35:48;102176.16;;;4.59;85.14
84136;BME280;74238;50.566;7.262;2024-01-30T04:38:14;102164.66;;;4.55;84.96
84136;BME280;74238;50.566;7.262;2024-01-30T04:40:40;102173.53;;;4.59;84.91
84136;BME280;74238;50.566;7.262;2024-01-30T04:43:05;102141.38;;;4.37;85.58
84136;BME280;74238;50.566;7.262;2024-01-30T04:45:30;102167.25;;;4.54;85.31
84136;BME280;74238;50.566;7.262;2024-01-30T04:47:56;102150.44;;;4.47;85.34
84136;BME280;74238;50.566;7.262;2024-01-30T04:50:23;102161.06;;;4.52;85.21
84136;BME280;74238;50.566;7.262;2024-01-30T04:52:48;102158.44;;;4.52;86.26
84136;BME280;74238;50.566;7.262;2024-01-30T04:55:13;102159.41;;;4.54;86.25
84136;BME280;74238;50.566;7.262;2024-01-30T04:57:39;102153.38;;;4.56;86.42
84136;BME280;74238;50.566;7.262;2024-01-30T05:00:04;102156.91;;;4.58;86.35
84136;BME280;74238;50.566;7.262;2024-01-30T05:02:30;102152.59;;;4.59;86.06
84136;BME280;74238;50.566;7.262;2024-01-30T05:04:56;102147.38;;;4.59;85.63
84136;BME280;74238;50.566;7.262;2024-01-30T05:07:21;102149.06;;;4.58;85.56
84136;BME280;74238;50.566;7.262;2024-01-30T05:09:47;102142.06;;;4.57;85.91
84136;BME280;74238;50.566;7.262;2024-01-30T05:12:12;102157.00;;;4.60;85.26
84136;BME280;74238;50.566;7.262;2024-01-30T05:14:37;102156.09;;;4.59;85.39
84136;BME280;74238;50.566;7.262;2024-01-30T05:17:03;102151.69;;;4.58;85.82
84136;BME280;74238;50.566;7.262;2024-01-30T05:19:28;102163.06;;;4.59;85.60
84136;BME280;74238;50.566;7.262;2024-01-30T05:21:54;102170.91;;;4.59;86.25
84136;BME280;74238;50.566;7.262;2024-01-30T05:24:19;102152.53;;;4.57;86.19
84136;BME280;74238;50.566;7.262;2024-01-30T05:26:44;102161.25;;;4.58;86.11
84136;BME280;74238;50.566;7.262;2024-01-30T05:29:10;102133.56;;;4.39;85.47
84136;BME280;74238;50.566;7.262;2024-01-30T05:31:35;102160.31;;;4.56;85.91
84136;BME280;74238;50.566;7.262;2024-01-30T05:34:01;102156.81;;;4.55;86.63
84136;BME280;74238;50.566;7.262;2024-01-30T05:36:27;102168.16;;;4.56;85.76
84136;BME280;74238;50.566;7.262;2024-01-30T05:38:52;102145.16;;;4.46;86.42
84136;BME280;74238;50.566;7.262;2024-01-30T05:41:18;102158.47;;;4.53;86.65
84136;BME280;74238;50.566;7.262;2024-01-30T05:43:43;102161.22;;;4.56;86.19
84136;BME280;74238;50.566;7.262;2024-01-30T05:46:09;102151.47;;;4.52;85.86
84136;BME280;74238;50.566;7.262;2024-01-30T05:48:34;102169.06;;;4.56;86.28
84136;BME280;74238;50.566;7.262;2024-01-30T05:51:00;102160.22;;;4.53;85.71
84136;BME280;74238;50.566;7.262;2024-01-30T05:53:26;102148.66;;;4.46;86.30
84136;BME280;74238;50.566;7.262;2024-01-30T05:55:51;102154.97;;;4.53;85.88
84136;BME280;74238;50.566;7.262;2024-01-30T05:58:16;102156.72;;;4.52;85.85
84136;BME280;74238;50.566;7.262;2024-01-30T06:00:42;102148.59;;;4.44;86.38
84136;BME280;74238;50.566;7.262;2024-01-30T06:03:07;102149.47;;;4.45;86.26
84136;BME280;74238;50.566;7.262;2024-01-30T06:05:33;102150.22;;;4.41;86.32
84136;BME280;74238;50.566;7.262;2024-01-30T06:07:58;102152.84;;;4.41;85.86
84136;BME280;74238;50.566;7.262;2024-01-30T06:10:23;102160.50;;;4.36;85.60
84136;BME280;74238;50.566;7.262;2024-01-30T06:12:48;102155.16;;;4.33;85.97
84136;BME280;74238;50.566;7.262;2024-01-30T06:15:14;102147.16;;;4.29;86.51
84136;BME280;74238;50.566;7.262;2024-01-30T06:17:39;102155.72;;;4.25;86.45
84136;BME280;74238;50.566;7.262;2024-01-30T06:20:06;102152.16;;;4.22;85.94
84136;BME280;74238;50.566;7.262;2024-01-30T06:22:31;102151.09;;;4.17;86.46
84136;BME280;74238;50.566;7.262;2024-01-30T06:24:56;102146.72;;;4.16;86.72
84136;BME280;74238;50.566;7.262;2024-01-30T06:27:22;102145.84;;;4.16;87.12
84136;BME280;74238;50.566;7.262;2024-01-30T06:29:47;102144.94;;;4.15;86.96
84136;BME280;74238;50.566;7.262;2024-01-30T06:32:12;102153.59;;;4.14;86.55
84136;BME280;74238;50.566;7.262;2024-01-30T06:34:38;102122.41;;;3.95;85.99
84136;BME280;74238;50.566;7.262;2024-01-30T06:37:05;102159.59;;;4.12;86.26
84136;BME280;74238;50.566;7.262;2024-01-30T06:39:30;102164.84;;;4.12;85.94
84136;BME280;74238;50.566;7.262;2024-01-30T06:41:56;102163.06;;;4.11;86.70
84136;BME280;74238;50.566;7.262;2024-01-30T06:44:21;102164.81;;;4.10;86.59
84136;BME280;74238;50.566;7.262;2024-01-30T06:46:46;102161.16;;;4.07;86.13
84136;BME280;74238;50.566;7.262;2024-01-30T06:49:11;102171.72;;;4.10;86.20
84136;BME280;74238;50.566;7.262;2024-01-30T06:51:37;102172.53;;;4.07;86.61
84136;BME280;74238;50.566;7.262;2024-01-30T06:54:02;102170.84;;;4.09;86.06
84136;BME280;74238;50.566;7.262;2024-01-30T06:56:28;102144.94;;;3.91;86.89
84136;BME280;74238;50.566;7.262;2024-01-30T06:58:53;102177.78;;;4.09;86.15
84136;BME280;74238;50.566;7.262;2024-01-30T07:01:19;102178.69;;;4.09;86.74
84136;BME280;74238;50.566;7.262;2024-01-30T07:03:44;102176.13;;;4.11;86.62
84136;BME280;74238;50.566;7.262;2024-01-30T07:06:09;102165.31;;;4.02;86.34
84136;BME280;74238;50.566;7.262;2024-01-30T07:08:36;102175.28;;;4.12;86.18
84136;BME280;74238;50.566;7.262;2024-01-30T07:11:02;102162.88;;;4.06;86.60
84136;BME280;74238;50.566;7.262;2024-01-30T07:13:27;102170.91;;;4.11;86.34
84136;BME280;74238;50.566;7.262;2024-01-30T07:15:53;102156.69;;;4.04;86.30
84136;BME280;74238;50.566;7.262;2024-01-30T07:18:19;102149.72;;;4.03;86.28
84136;BME280;74238;50.566;7.262;2024-01-30T07:20:44;102167.41;;;4.10;86.45
84136;BME280;74238;50.566;7.262;2024-01-30T07:23:13;102171.69;;;4.08;86.27
84136;BME280;74238;50.566;7.262;2024-01-30T07:25:41;102169.06;;;4.08;86.94
84136;BME280;74238;50.566;7.262;2024-01-30T07:28:07;102157.72;;;4.08;86.25
84136;BME280;74238;50.566;7.262;2024-01-30T07:30:34;102161.16;;;4.07;86.57
84136;BME280;74238;50.566;7.262;2024-01-30T07:32:59;102157.44;;;4.00;86.45
84136;BME280;74238;50.566;7.262;2024-01-30T07:35:25;102168.00;;;4.03;86.79
84136;BME280;74238;50.566;7.262;2024-01-30T07:37:50;102163.72;;;4.05;86.90
84136;BME280;74238;50.566;7.262;2024-01-30T07:40:16;102163.63;;;4.02;86.53
84136;BME280;74238;50.566;7.262;2024-01-30T07:42:42;102175.97;;;4.06;87.04
84136;BME280;74238;50.566;7.262;2024-01-30T07:45:07;102174.28;;;4.08;87.41
84136;BME280;74238;50.566;7.262;2024-01-30T07:47:33;102177.03;;;4.11;86.35
84136;BME280;74238;50.566;7.262;2024-01-30T07:49:58;102177.13;;;4.14;87.07
84136;BME280;74238;50.566;7.262;2024-01-30T07:52:24;102178.00;;;4.15;87.04
84136;BME280;74238;50.566;7.262;2024-01-30T07:54:50;102182.47;;;4.17;87.29
84136;BME280;74238;50.566;7.262;2024-01-30T07:57:15;102180.81;;;4.19;86.37
84136;BME280;74238;50.566;7.262;2024-01-30T07:59:45;102176.53;;;4.21;87.12
84136;BME280;74238;50.566;7.262;2024-01-30T08:02:11;102175.69;;;4.22;86.17
84136;BME280;74238;50.566;7.262;2024-01-30T08:04:37;102174.91;;;4.25;87.07
84136;BME280;74238;50.566;7.262;2024-01-30T08:07:02;102186.31;;;4.27;86.05
84136;BME280;74238;50.566;7.262;2024-01-30T08:09:28;102185.56;;;4.30;86.00
84136;BME280;74238;50.566;7.262;2024-01-30T08:11:53;102153.50;;;4.11;86.23
84136;BME280;74238;50.566;7.262;2024-01-30T08:14:18;102196.13;;;4.33;86.66
84136;BME280;74238;50.566;7.262;2024-01-30T08:16:44;102190.78;;;4.30;85.52
84136;BME280;74238;50.566;7.262;2024-01-30T08:19:09;102199.69;;;4.35;86.56
84136;BME280;74238;50.566;7.262;2024-01-30T08:21:34;102187.50;;;4.35;85.49
84136;BME280;74238;50.566;7.262;2024-01-30T08:24:04;102205.84;;;4.37;86.67
84136;BME280;74238;50.566;7.262;2024-01-30T08:26:30;102198.00;;;4.37;86.22
84136;BME280;74238;50.566;7.262;2024-01-30T08:28:55;102195.44;;;4.38;85.50
84136;BME280;74238;50.566;7.262;2024-01-30T08:31:20;102186.75;;;4.39;85.91
84136;BME280;74238;50.566;7.262;2024-01-30T08:33:46;102144.22;;;4.19;85.72
84136;BME280;74238;50.566;7.262;2024-01-30T08:36:11;102160.34;;;4.32;85.63
84136;BME280;74238;50.566;7.262;2024-01-30T08:38:36;102179.28;;;4.50;85.55
84136;BME280;74238;50.566;7.262;2024-01-30T08:41:01;102182.03;;;4.53;85.80
84136;BME280;74238;50.566;7.262;2024-01-30T08:43:28;102183.03;;;4.57;85.05
84136;BME280;74238;50.566;7.262;2024-01-30T08:45:53;102177.03;;;4.59;85.55
84136;BME280;74238;50.566;7.262;2024-01-30T08:48:18;102177.97;;;4.61;85.81
84136;BME280;74238;50.566;7.262;2024-01-30T08:50:44;102180.69;;;4.64;85.54
84136;BME280;74238;50.566;7.262;2024-01-30T08:53:09;102152.34;;;4.51;84.99
84136;BME280;74238;50.566;7.262;2024-01-30T08:55:34;102178.28;;;4.71;84.97
84136;BME280;74238;50.566;7.262;2024-01-30T08:57:59;102150.88;;;4.59;85.42
84136;BME280;74238;50.566;7.262;2024-01-30T09:00:25;102173.25;;;4.77;86.21
84136;BME280;74238;50.566;7.262;2024-01-30T09:02:50;102168.13;;;4.80;85.71
84136;BME280;74238;50.566;7.262;2024-01-30T09:05:15;102170.81;;;4.81;85.85
84136;BME280;74238;50.566;7.262;2024-01-30T09:07:41;102179.75;;;4.88;84.86
84136;BME280;74238;50.566;7.262;2024-01-30T09:10:06;102186.22;;;4.99;84.24
84136;BME280;74238;50.566;7.262;2024-01-30T09:12:32;102177.84;;;5.09;84.98
84136;BME280;74238;50.566;7.262;2024-01-30T09:14:58;102193.56;;;5.35;84.33
84136;BME280;74238;50.566;7.262;2024-01-30T09:17:23;102197.59;;;5.52;84.04
84136;BME280;74238;50.566;7.262;2024-01-30T09:19:48;102199.00;;;5.70;82.84
84136;BME280;74238;50.566;7.262;2024-01-30T09:22:14;102190.72;;;5.85;81.93
84136;BME280;74238;50.566;7.262;2024-01-30T09:24:40;102205.22;;;6.01;82.15
84136;BME280;74238;50.566;7.262;2024-01-30T09:27:05;102207.28;;;6.11;81.78
84136;BME280;74238;50.566;7.262;2024-01-30T09:29:31;102211.91;;;6.19;82.03
84136;BME280;74238;50.566;7.262;2024-01-30T09:31:59;102211.19;;;6.25;81.42
84136;BME280;74238;50.566;7.262;2024-01-30T09:34:24;102218.28;;;6.29;80.82
84136;BME280;74238;50.566;7.262;2024-01-30T09:36:50;102212.16;;;6.29;81.21
84136;BME280;74238;50.566;7.262;2024-01-30T09:39:15;102225.09;;;6.53;80.65
84136;BME280;74238;50.566;7.262;2024-01-30T09:42:01;102223.41;;;6.86;78.95
84136;BME280;74238;50.566;7.262;2024-01-30T09:44:29;102219.03;;;7.55;77.71
84136;BME280;74238;50.566;7.262;2024-01-30T09:46:55;102214.41;;;8.24;74.76
84136;BME280;74238;50.566;7.262;2024-01-30T09:49:24;102233.81;;;8.70;73.33
84136;BME280;74238;50.566;7.262;2024-01-30T09:51:50;102233.66;;;9.07;70.80
84136;BME280;74238;50.566;7.262;2024-01-30T09:54:16;102227.94;;;8.83;71.76
84136;BME280;74238;50.566;7.262;2024-01-30T09:56:42;102215.84;;;8.49;72.29
84136;BME280;74238;50.566;7.262;2024-01-30T09:59:07;102221.66;;;8.35;73.87
84136;BME280;74238;50.566;7.262;2024-01-30T10:01:34;102244.94;;;8.56;72.85
84136;BME280;74238;50.566;7.262;2024-01-30T10:04:00;102237.81;;;8.51;73.12
84136;BME280;74238;50.566;7.262;2024-01-30T10:06:26;102238.28;;;8.31;74.31
84136;BME280;74238;50.566;7.262;2024-01-30T10:08:52;102231.44;;;7.98;74.54
84136;BME280;74238;50.566;7.262;2024-01-30T10:11:17;102234.38;;;7.74;75.73
84136;BME280;74238;50.566;7.262;2024-01-30T10:13:42;102233.06;;;7.55;77.03
84136;BME280;74238;50.566;7.262;2024-01-30T10:16:08;102232.59;;;7.37;77.50
84136;BME280;74238;50.566;7.262;2024-01-30T10:18:34;102235.75;;;7.24;78.02
84136;BME280;74238;50.566;7.262;2024-01-30T10:20:59;102245.16;;;7.14;78.99
84136;BME280;74238;50.566;7.262;2024-01-30T10:23:25;102243.25;;;7.08;78.98
84136;BME280;74238;50.566;7.262;2024-01-30T10:25:51;102241.47;;;7.07;78.94
84136;BME280;74238;50.566;7.262;2024-01-30T10:28:17;102233.63;;;7.09;78.88
84136;BME280;74238;50.566;7.262;2024-01-30T10:30:42;102232.84;;;7.13;79.28
84136;BME280;74238;50.566;7.262;2024-01-30T10:33:08;102237.38;;;7.19;79.36
84136;BME280;74238;50.566;7.262;2024-01-30T10:35:33;102239.38;;;7.29;79.32
84136;BME280;74238;50.566;7.262;2024-01-30T10:37:59;102207.56;;;7.17;78.45
84136;BME280;74238;50.566;7.262;2024-01-30T10:40:27;102238.91;;;7.44;78.74
84136;BME280;74238;50.566;7.262;2024-01-30T10:42:55;102226.47;;;7.38;78.61
84136;BME280;74238;50.566;7.262;2024-01-30T10:45:22;102231.91;;;7.46;79.19
84136;BME280;74238;50.566;7.262;2024-01-30T10:47:53;102222.28;;;7.45;78.75
84136;BME280;74238;50.566;7.262;2024-01-30T10:50:20;102240.06;;;7.55;77.93
84136;BME280;74238;50.566;7.262;2024-01-30T10:52:46;102242.69;;;7.57;78.91
84136;BME280;74238;50.566;7.262;2024-01-30T10:55:12;102252.31;;;7.56;78.56
84136;BME280;74238;50.566;7.262;2024-01-30T10:57:39;102253.13;;;7.53;78.51
84136;BME280;74238;50.566;7.262;2024-01-30T11:00:12;102249.56;;;7.50;78.87
84136;BME280;74238;50.566;7.262;2024-01-30T11:02:45;102214.81;;;7.27;78.82
84136;BME280;74238;50.566;7.262;2024-01-30T11:05:12;102235.19;;;7.36;79.29
84136;BME280;74238;50.566;7.262;2024-01-30T11:07:39;102240.53;;;7.39;79.16
84136;BME280;74238;50.566;7.262;2024-01-30T11:10:05;102225.56;;;7.36;79.38
84136;BME280;74238;50.566;7.262;2024-01-30T11:12:38;102233.53;;;7.41;79.52
84136;BME280;74238;50.566;7.262;2024-01-30T11:15:16;102222.97;;;7.38;78.73
84136;BME280;74238;50.566;7.262;2024-01-30T11:17:43;102227.47;;;7.43;79.51
84136;BME280;74238;50.566;7.262;2024-01-30T11:20:15;102225.91;;;7.50;79.29
84136;BME280;74238;50.566;7.262;2024-01-30T11:22:47;102222.47;;;7.52;79.45
84136;BME280;74238;50.566;7.262;2024-01-30T11:25:17;102206.72;;;7.54;79.14
84136;BME280;74238;50.566;7.262;2024-01-30T11:27:43;102190.19;;;7.58;79.63
84136;BME280;74238;50.566;7.262;2024-01-30T11:30:09;102178.81;;;7.59;79.76
84136;BME280;74238;50.566;7.262;2024-01-30T11:32:35;102188.47;;;7.60;79.32
84136;BME280;74238;50.566;7.262;2024-01-30T11:35:03;102191.13;;;7.62;79.12
84136;BME280;74238;50.566;7.262;2024-01-30T11:37:31;102204.31;;;7.63;79.21
84136;BME280;74238;50.566;7.262;2024-01-30T11:39:58;102209.59;;;7.63;79.42
84136;BME280;74238;50.566;7.262;2024-01-30T11:42:24;102178.56;;;7.48;78.83
84136;BME280;74238;50.566;7.262;2024-01-30T11:44:52;102215.75;;;7.65;79.52
84136;BME280;74238;50.566;7.262;2024-01-30T11:47:18;102206.97;;;7.65;79.16
84136;BME280;74238;50.566;7.262;2024-01-30T11:49:43;102183.22;;;7.60;79.62
84136;BME280;74238;50.566;7.262;2024-01-30T11:52:09;102183.25;;;7.62;80.09
84136;BME280;74238;50.566;7.262;2024-01-30T11:54:35;102193.81;;;7.65;79.56
84136;BME280;74238;50.566;7.262;2024-01-30T11:57:01;102193.81;;;7.63;79.57
84136;BME280;74238;50.566;7.262;2024-01-30T11:59:26;102188.56;;;7.63;79.63
84136;BME280;74238;50.566;7.262;2024-01-30T12:01:52;102130.91;;;7.33;79.67
84136;BME280;74238;50.566;7.262;2024-01-30T12:04:17;102192.94;;;7.63;79.42
84136;BME280;74238;50.566;7.262;2024-01-30T12:06:43;102188.56;;;7.63;79.54
84136;BME280;74238;50.566;7.262;2024-01-30T12:09:09;102200.88;;;7.66;79.71
84136;BME280;74238;50.566;7.262;2024-01-30T12:11:47;102181.56;;;7.65;79.16
84136;BME280;74238;50.566;7.262;2024-01-30T12:14:13;102187.81;;;7.70;79.28
84136;BME280;74238;50.566;7.262;2024-01-30T12:16:39;102192.31;;;7.74;79.66
84136;BME280;74238;50.566;7.262;2024-01-30T12:19:05;102189.69;;;7.76;79.35
84136;BME280;74238;50.566;7.262;2024-01-30T12:21:30;102189.91;;;7.85;79.14
84136;BME280;74238;50.566;7.262;2024-01-30T12:23:59;102169.63;;;7.80;79.47
84136;BME280;74238;50.566;7.262;2024-01-30T12:26:25;102172.41;;;7.86;79.06
84136;BME280;74238;50.566;7.262;2024-01-30T12:28:54;102180.63;;;8.01;79.71
84136;BME280;74238;50.566;7.262;2024-01-30T12:31:25;102152.34;;;7.91;78.67
84136;BME280;74238;50.566;7.262;2024-01-30T12:33:52;102137.31;;;7.85;78.78
84136;BME280;74238;50.566;7.262;2024-01-30T12:36:17;102187.00;;;8.14;78.59
84136;BME280;74238;50.566;7.262;2024-01-30T12:38:43;102177.47;;;8.17;78.62
84136;BME280;74238;50.566;7.262;2024-01-30T12:41:09;102177.53;;;8.20;78.33
84136;BME280;74238;50.566;7.262;2024-01-30T12:43:35;102188.97;;;8.23;79.55
84136;BME280;74238;50.566;7.262;2024-01-30T12:46:01;102185.47;;;8.24;78.43
84136;BME280;74238;50.566;7.262;2024-01-30T12:48:27;102181.16;;;8.27;79.08
84136;BME280;74238;50.566;7.262;2024-01-30T12:50:55;102186.47;;;8.29;78.49
84136;BME280;74238;50.566;7.262;2024-01-30T12:53:21;102184.66;;;8.28;78.89